sensor_id;sensor_type;location;lat;lon;timestamp;pressure;altitude;pressure_sealevel;temperature;humidity
77706;BME280;66874;45.274;5.880;2023-11-19T00:00:18;99731.53;;;5.27;79.99
77706;BME280;66874;45.274;5.880;2023-11-19T00:02:43;99728.97;;;5.28;80.10
77706;BME280;66874;45.274;5.880;2023-11-19T00:05:10;99733.22;;;5.25;79.89
77706;BME280;66874;45.274;5.880;2023-11-19T00:07:37;99728.03;;;5.23;80.28
77706;BME280;66874;45.274;5.880;2023-11-19T00:10:15;99726.25;;;5.19;80.25
77706;BME280;66874;45.274;5.880;2023-11-19T00:12:44;99716.69;;;5.15;80.34
77706;BME280;66874;45.274;5.880;2023-11-19T00:15:10;99715.78;;;5.13;80.11
77706;BME280;66874;45.274;5.880;2023-11-19T00:17:41;99716.63;;;5.10;80.16
77706;BME280;66874;45.274;5.880;2023-11-19T00:20:13;99713.09;;;5.05;80.14
77706;BME280;66874;45.274;5.880;2023-11-19T00:22:39;99715.69;;;5.04;80.19
77706;BME280;66874;45.274;5.880;2023-11-19T00:25:05;99700.94;;;5.00;80.29
77706;BME280;66874;45.274;5.880;2023-11-19T00:27:31;99705.22;;;4.96;80.32
77706;BME280;66874;45.274;5.880;2023-11-19T00:29:56;99702.53;;;4.90;80.55
77706;BME280;66874;45.274;5.880;2023-11-19T00:32:22;99693.81;;;4.86;80.52
77706;BME280;66874;45.274;5.880;2023-11-19T00:34:47;99692.09;;;4.85;80.64
77706;BME280;66874;45.274;5.880;2023-11-19T00:37:14;99697.22;;;4.84;80.73
77706;BME280;66874;45.274;5.880;2023-11-19T00:39:40;99695.44;;;4.77;80.69
77706;BME280;66874;45.274;5.880;2023-11-19T00:42:05;99694.47;;;4.72;80.81
77706;BME280;66874;45.274;5.880;2023-11-19T00:44:31;99690.13;;;4.69;80.98
77706;BME280;66874;45.274;5.880;2023-11-19T00:46:56;99696.16;;;4.68;80.85
77706;BME280;66874;45.274;5.880;2023-11-19T00:49:21;99690.97;;;4.67;80.95
77706;BME280;66874;45.274;5.880;2023-11-19T00:51:47;99700.50;;;4.69;80.80
77706;BME280;66874;45.274;5.880;2023-11-19T00:54:12;99703.91;;;4.67;80.92
77706;BME280;66874;45.274;5.880;2023-11-19T00:56:37;99701.28;;;4.65;80.85
77706;BME280;66874;45.274;5.880;2023-11-19T00:59:03;99708.19;;;4.63;80.83
77706;BME280;66874;45.274;5.880;2023-11-19T01:01:29;99697.75;;;4.60;80.98
77706;BME280;66874;45.274;5.880;2023-11-19T01:03:55;99695.16;;;4.58;80.84
77706;BME280;66874;45.274;5.880;2023-11-19T01:06:32;99690.84;;;4.60;80.84
77706;BME280;66874;45.274;5.880;2023-11-19T01:08:58;99687.41;;;4.60;80.77
77706;BME280;66874;45.274;5.880;2023-11-19T01:11:24;99683.88;;;4.56;80.82
77706;BME280;66874;45.274;5.880;2023-11-19T01:13:49;99675.25;;;4.54;80.93
77706;BME280;66874;45.274;5.880;2023-11-19T01:16:15;99677.78;;;4.51;80.78
77706;BME280;66874;45.274;5.880;2023-11-19T01:18:41;99679.44;;;4.48;80.81
77706;BME280;66874;45.274;5.880;2023-11-19T01:21:07;99666.44;;;4.45;80.88
77706;BME280;66874;45.274;5.880;2023-11-19T01:23:32;99668.09;;;4.41;80.99
77706;BME280;66874;45.274;5.880;2023-11-19T01:25:58;99666.38;;;4.38;80.96
77706;BME280;66874;45.274;5.880;2023-11-19T01:28:23;99663.78;;;4.38;80.89
77706;BME280;66874;45.274;5.880;2023-11-19T01:30:52;99657.69;;;4.38;81.03
77706;BME280;66874;45.274;5.880;2023-11-19T01:33:17;99649.03;;;4.36;81.03
77706;BME280;66874;45.274;5.880;2023-11-19T01:35:43;99656.00;;;4.38;81.13
77706;BME280;66874;45.274;5.880;2023-11-19T01:38:08;99655.91;;;4.34;81.13
77706;BME280;66874;45.274;5.880;2023-11-19T01:40:34;99647.22;;;4.29;81.05
77706;BME280;66874;45.274;5.880;2023-11-19T01:43:02;99649.69;;;4.23;81.17
77706;BME280;66874;45.274;5.880;2023-11-19T01:45:28;99649.66;;;4.20;81.31
77706;BME280;66874;45.274;5.880;2023-11-19T01:47:58;99646.16;;;4.16;81.19
77706;BME280;66874;45.274;5.880;2023-11-19T01:50:25;99651.28;;;4.11;81.30
77706;BME280;66874;45.274;5.880;2023-11-19T01:52:54;99658.97;;;4.08;81.33
77706;BME280;66874;45.274;5.880;2023-11-19T01:55:24;99659.78;;;4.06;81.47
77706;BME280;66874;45.274;5.880;2023-11-19T01:57:50;99652.88;;;4.05;81.53
77706;BME280;66874;45.274;5.880;2023-11-19T02:00:16;99653.72;;;4.04;81.45
77706;BME280;66874;45.274;5.880;2023-11-19T02:02:45;99659.78;;;4.04;81.19
77706;BME280;66874;45.274;5.880;2023-11-19T02:05:11;99660.66;;;4.05;81.31
77706;BME280;66874;45.274;5.880;2023-11-19T02:07:38;99663.22;;;4.05;81.24
77706;BME280;66874;45.274;5.880;2023-11-19T02:10:04;99664.91;;;4.01;81.39
77706;BME280;66874;45.274;5.880;2023-11-19T02:12:31;99668.16;;;3.89;81.26
77706;BME280;66874;45.274;5.880;2023-11-19T02:15:01;99669.69;;;3.78;81.56
77706;BME280;66874;45.274;5.880;2023-11-19T02:17:27;99667.06;;;3.77;82.05
77706;BME280;66874;45.274;5.880;2023-11-19T02:19:53;99669.69;;;3.80;81.83
77706;BME280;66874;45.274;5.880;2023-11-19T02:22:19;99666.28;;;3.81;81.67
77706;BME280;66874;45.274;5.880;2023-11-19T02:24:46;99659.31;;;3.78;81.97
77706;BME280;66874;45.274;5.880;2023-11-19T02:27:28;99669.69;;;3.78;81.82
77706;BME280;66874;45.274;5.880;2023-11-19T02:29:56;99677.44;;;3.78;81.98
77706;BME280;66874;45.274;5.880;2023-11-19T02:32:23;99671.47;;;3.82;81.94
77706;BME280;66874;45.274;5.880;2023-11-19T02:34:48;99667.16;;;3.83;82.00
77706;BME280;66874;45.274;5.880;2023-11-19T02:37:14;99666.28;;;3.82;81.85
77706;BME280;66874;45.274;5.880;2023-11-19T02:39:40;99667.22;;;3.84;81.73
77706;BME280;66874;45.274;5.880;2023-11-19T02:42:07;99664.56;;;3.83;81.98
77706;BME280;66874;45.274;5.880;2023-11-19T02:44:33;99666.28;;;3.82;81.82
77706;BME280;66874;45.274;5.880;2023-11-19T02:46:59;99672.28;;;3.80;81.81
77706;BME280;66874;45.274;5.880;2023-11-19T02:49:25;99665.34;;;3.77;81.84
77706;BME280;66874;45.274;5.880;2023-11-19T02:51:50;99661.84;;;3.74;82.03
77706;BME280;66874;45.274;5.880;2023-11-19T02:54:16;99665.22;;;3.71;81.85
77706;BME280;66874;45.274;5.880;2023-11-19T02:56:44;99653.94;;;3.67;81.97
77706;BME280;66874;45.274;5.880;2023-11-19T02:59:13;99656.47;;;3.64;81.94
77706;BME280;66874;45.274;5.880;2023-11-19T03:01:52;99655.56;;;3.61;81.99
77706;BME280;66874;45.274;5.880;2023-11-19T03:04:17;99648.63;;;3.58;81.96
77706;BME280;66874;45.274;5.880;2023-11-19T03:06:45;99650.34;;;3.58;82.22
77706;BME280;66874;45.274;5.880;2023-11-19T03:09:10;99649.44;;;3.57;82.11
77706;BME280;66874;45.274;5.880;2023-11-19T03:11:36;99651.16;;;3.57;82.13
77706;BME280;66874;45.274;5.880;2023-11-19T03:14:01;99648.59;;;3.57;82.11
77706;BME280;66874;45.274;5.880;2023-11-19T03:16:28;99650.25;;;3.53;82.20
77706;BME280;66874;45.274;5.880;2023-11-19T03:18:53;99659.66;;;3.50;81.79
77706;BME280;66874;45.274;5.880;2023-11-19T03:21:19;99659.63;;;3.47;82.07
77706;BME280;66874;45.274;5.880;2023-11-19T03:23:44;99664.75;;;3.45;81.81
77706;BME280;66874;45.274;5.880;2023-11-19T03:26:10;99663.03;;;3.46;82.21
77706;BME280;66874;45.274;5.880;2023-11-19T03:28:36;99656.09;;;3.43;82.13
77706;BME280;66874;45.274;5.880;2023-11-19T03:31:04;99654.31;;;3.39;82.13
77706;BME280;66874;45.274;5.880;2023-11-19T03:33:31;99655.97;;;3.35;82.30
77706;BME280;66874;45.274;5.880;2023-11-19T03:35:56;99649.84;;;3.32;82.16
77706;BME280;66874;45.274;5.880;2023-11-19T03:38:23;99644.69;;;3.32;82.21
77706;BME280;66874;45.274;5.880;2023-11-19T03:40:49;99637.72;;;3.28;82.24
77706;BME280;66874;45.274;5.880;2023-11-19T03:43:15;99632.50;;;3.26;82.65
77706;BME280;66874;45.274;5.880;2023-11-19T03:45:41;99630.75;;;3.25;82.82
77706;BME280;66874;45.274;5.880;2023-11-19T03:48:06;99625.66;;;3.28;82.58
77706;BME280;66874;45.274;5.880;2023-11-19T03:50:31;99630.00;;;3.31;82.41
77706;BME280;66874;45.274;5.880;2023-11-19T03:52:56;99626.53;;;3.30;82.52
77706;BME280;66874;45.274;5.880;2023-11-19T03:55:22;99625.66;;;3.30;82.30
77706;BME280;66874;45.274;5.880;2023-11-19T03:57:47;99624.78;;;3.29;82.46
77706;BME280;66874;45.274;5.880;2023-11-19T04:00:13;99630.84;;;3.30;82.59
77706;BME280;66874;45.274;5.880;2023-11-19T04:02:40;99625.66;;;3.30;82.47
77706;BME280;66874;45.274;5.880;2023-11-19T04:05:06;99624.78;;;3.29;82.55
77706;BME280;66874;45.274;5.880;2023-11-19T04:07:32;99629.91;;;3.26;82.54
77706;BME280;66874;45.274;5.880;2023-11-19T04:09:58;99637.63;;;3.23;82.86
77706;BME280;66874;45.274;5.880;2023-11-19T04:12:23;99637.56;;;3.22;82.68
77706;BME280;66874;45.274;5.880;2023-11-19T04:14:48;99638.44;;;3.21;82.70
77706;BME280;66874;45.274;5.880;2023-11-19T04:17:14;99634.97;;;3.20;82.58
77706;BME280;66874;45.274;5.880;2023-11-19T04:19:39;99638.34;;;3.16;82.64
77706;BME280;66874;45.274;5.880;2023-11-19T04:22:09;99640.88;;;3.14;82.91
77706;BME280;66874;45.274;5.880;2023-11-19T04:24:36;99638.34;;;3.16;82.99
77706;BME280;66874;45.274;5.880;2023-11-19T04:27:01;99640.16;;;3.22;82.99
77706;BME280;66874;45.274;5.880;2023-11-19T04:29:26;99639.38;;;3.26;82.96
77706;BME280;66874;45.274;5.880;2023-11-19T04:31:52;99637.72;;;3.28;82.93
77706;BME280;66874;45.274;5.880;2023-11-19T04:34:17;99638.56;;;3.28;82.88
77706;BME280;66874;45.274;5.880;2023-11-19T04:36:42;99644.56;;;3.26;82.67
77706;BME280;66874;45.274;5.880;2023-11-19T04:39:09;99635.91;;;3.24;83.00
77706;BME280;66874;45.274;5.880;2023-11-19T04:41:51;99637.66;;;3.26;83.04
77706;BME280;66874;45.274;5.880;2023-11-19T04:44:19;99635.13;;;3.29;82.98
77706;BME280;66874;45.274;5.880;2023-11-19T04:46:45;99628.25;;;3.30;82.98
77706;BME280;66874;45.274;5.880;2023-11-19T04:49:11;99627.38;;;3.28;82.77
77706;BME280;66874;45.274;5.880;2023-11-19T04:51:44;99631.63;;;3.26;82.98
77706;BME280;66874;45.274;5.880;2023-11-19T04:54:12;99632.47;;;3.23;83.15
77706;BME280;66874;45.274;5.880;2023-11-19T04:56:37;99634.97;;;3.20;83.21
77706;BME280;66874;45.274;5.880;2023-11-19T04:59:03;99629.75;;;3.18;83.29
77706;BME280;66874;45.274;5.880;2023-11-19T05:01:33;99632.31;;;3.17;83.37
77706;BME280;66874;45.274;5.880;2023-11-19T05:03:59;99630.50;;;3.11;83.48
77706;BME280;66874;45.274;5.880;2023-11-19T05:06:28;99627.00;;;3.09;83.66
77706;BME280;66874;45.274;5.880;2023-11-19T05:08:54;99624.34;;;3.06;83.56
77706;BME280;66874;45.274;5.880;2023-11-19T05:11:20;99622.59;;;3.04;83.60
77706;BME280;66874;45.274;5.880;2023-11-19T05:13:45;99612.19;;;3.01;83.43
77706;BME280;66874;45.274;5.880;2023-11-19T05:16:11;99612.16;;;2.99;83.54
77706;BME280;66874;45.274;5.880;2023-11-19T05:18:39;99614.72;;;2.99;83.49
77706;BME280;66874;45.274;5.880;2023-11-19T05:21:05;99606.97;;;2.99;83.54
77706;BME280;66874;45.274;5.880;2023-11-19T05:23:30;99612.16;;;2.99;83.70
77706;BME280;66874;45.274;5.880;2023-11-19T05:25:56;99611.34;;;3.02;83.33
77706;BME280;66874;45.274;5.880;2023-11-19T05:28:23;99607.91;;;3.03;83.76
77706;BME280;66874;45.274;5.880;2023-11-19T05:30:49;99604.50;;;3.04;83.70
77706;BME280;66874;45.274;5.880;2023-11-19T05:33:15;99617.44;;;3.05;83.60
77706;BME280;66874;45.274;5.880;2023-11-19T05:35:40;99619.16;;;3.05;83.56
77706;BME280;66874;45.274;5.880;2023-11-19T05:38:05;99625.19;;;3.05;83.43
77706;BME280;66874;45.274;5.880;2023-11-19T05:40:31;99615.72;;;3.04;83.49
77706;BME280;66874;45.274;5.880;2023-11-19T05:42:57;99620.84;;;3.03;83.55
77706;BME280;66874;45.274;5.880;2023-11-19T05:45:22;99620.81;;;3.01;83.52
77706;BME280;66874;45.274;5.880;2023-11-19T05:47:47;99619.00;;;2.97;83.57
77706;BME280;66874;45.274;5.880;2023-11-19T05:50:12;99618.00;;;2.90;83.36
77706;BME280;66874;45.274;5.880;2023-11-19T05:52:38;99615.34;;;2.87;83.62
77706;BME280;66874;45.274;5.880;2023-11-19T05:55:04;99615.34;;;2.86;83.82
77706;BME280;66874;45.274;5.880;2023-11-19T05:57:31;99614.47;;;2.85;83.79
77706;BME280;66874;45.274;5.880;2023-11-19T05:59:56;99608.38;;;2.82;83.86
77706;BME280;66874;45.274;5.880;2023-11-19T06:02:21;99610.94;;;2.82;83.86
77706;BME280;66874;45.274;5.880;2023-11-19T06:04:47;99603.19;;;2.82;83.97
77706;BME280;66874;45.274;5.880;2023-11-19T06:07:13;99602.31;;;2.81;84.00
77706;BME280;66874;45.274;5.880;2023-11-19T06:09:40;99604.06;;;2.82;83.84
77706;BME280;66874;45.274;5.880;2023-11-19T06:12:06;99601.47;;;2.82;83.90
77706;BME280;66874;45.274;5.880;2023-11-19T06:14:32;99596.31;;;2.82;83.95
77706;BME280;66874;45.274;5.880;2023-11-19T06:16:58;99596.34;;;2.84;83.71
77706;BME280;66874;45.274;5.880;2023-11-19T06:19:23;99596.34;;;2.84;83.98
77706;BME280;66874;45.274;5.880;2023-11-19T06:21:50;99596.34;;;2.84;83.90
77706;BME280;66874;45.274;5.880;2023-11-19T06:24:15;99593.72;;;2.81;83.69
77706;BME280;66874;45.274;5.880;2023-11-19T06:26:41;99598.03;;;2.82;83.93
77706;BME280;66874;45.274;5.880;2023-11-19T06:29:06;99595.44;;;2.82;83.97
77706;BME280;66874;45.274;5.880;2023-11-19T06:31:32;99599.75;;;2.81;83.94
77706;BME280;66874;45.274;5.880;2023-11-19T06:33:57;99590.28;;;2.82;84.08
77706;BME280;66874;45.274;5.880;2023-11-19T06:36:22;99599.69;;;2.80;83.98
77706;BME280;66874;45.274;5.880;2023-11-19T06:38:48;99592.78;;;2.79;84.15
77706;BME280;66874;45.274;5.880;2023-11-19T06:41:13;99587.69;;;2.82;84.16
77706;BME280;66874;45.274;5.880;2023-11-19T06:43:38;99587.72;;;2.83;84.03
77706;BME280;66874;45.274;5.880;2023-11-19T06:46:04;99590.28;;;2.83;84.26
77706;BME280;66874;45.274;5.880;2023-11-19T06:48:33;99589.44;;;2.83;84.04
77706;BME280;66874;45.274;5.880;2023-11-19T06:50:59;99594.63;;;2.84;84.18
77706;BME280;66874;45.274;5.880;2023-11-19T06:53:25;99592.94;;;2.86;84.07
77706;BME280;66874;45.274;5.880;2023-11-19T06:55:50;99592.09;;;2.87;84.13
77706;BME280;66874;45.274;5.880;2023-11-19T06:58:15;99598.13;;;2.88;84.02
77706;BME280;66874;45.274;5.880;2023-11-19T07:00:42;99592.94;;;2.86;84.06
77706;BME280;66874;45.274;5.880;2023-11-19T07:03:08;99592.03;;;2.84;83.91
77706;BME280;66874;45.274;5.880;2023-11-19T07:05:36;99585.97;;;2.81;84.09
77706;BME280;66874;45.274;5.880;2023-11-19T07:08:03;99580.75;;;2.79;83.97
77706;BME280;66874;45.274;5.880;2023-11-19T07:10:29;99579.03;;;2.80;84.22
77706;BME280;66874;45.274;5.880;2023-11-19T07:12:55;99572.97;;;2.78;84.24
77706;BME280;66874;45.274;5.880;2023-11-19T07:15:21;99574.63;;;2.74;84.30
77706;BME280;66874;45.274;5.880;2023-11-19T07:17:46;99580.66;;;2.76;84.39
77706;BME280;66874;45.274;5.880;2023-11-19T07:20:13;99579.00;;;2.78;84.17
77706;BME280;66874;45.274;5.880;2023-11-19T07:22:43;99582.47;;;2.79;84.06
77706;BME280;66874;45.274;5.880;2023-11-19T07:25:12;99581.59;;;2.80;84.11
77706;BME280;66874;45.274;5.880;2023-11-19T07:27:38;99584.25;;;2.81;84.24
77706;BME280;66874;45.274;5.880;2023-11-19T07:30:04;99584.25;;;2.83;84.31
77706;BME280;66874;45.274;5.880;2023-11-19T07:32:30;99588.66;;;2.87;84.16
77706;BME280;66874;45.274;5.880;2023-11-19T07:34:55;99582.59;;;2.85;84.30
77706;BME280;66874;45.274;5.880;2023-11-19T07:37:21;99586.88;;;2.84;84.39
77706;BME280;66874;45.274;5.880;2023-11-19T07:39:47;99588.69;;;2.88;84.36
77706;BME280;66874;45.274;5.880;2023-11-19T07:42:13;99587.00;;;2.90;84.36
77706;BME280;66874;45.274;5.880;2023-11-19T07:44:38;99584.50;;;2.95;84.29
77706;BME280;66874;45.274;5.880;2023-11-19T07:47:04;99583.72;;;2.99;84.17
77706;BME280;66874;45.274;5.880;2023-11-19T07:49:29;99589.81;;;3.03;84.13
77706;BME280;66874;45.274;5.880;2023-11-19T07:51:56;99591.66;;;3.08;84.25
77706;BME280;66874;45.274;5.880;2023-11-19T07:54:21;99590.91;;;3.14;84.34
77706;BME280;66874;45.274;5.880;2023-11-19T07:56:47;99597.88;;;3.18;84.18
77706;BME280;66874;45.274;5.880;2023-11-19T07:59:12;99594.41;;;3.16;84.14
77706;BME280;66874;45.274;5.880;2023-11-19T08:01:37;99591.03;;;3.22;84.22
77706;BME280;66874;45.274;5.880;2023-11-19T08:04:03;99592.06;;;3.30;84.10
77706;BME280;66874;45.274;5.880;2023-11-19T08:06:28;99592.19;;;3.37;84.10
77706;BME280;66874;45.274;5.880;2023-11-19T08:08:54;99598.50;;;3.52;84.24
77706;BME280;66874;45.274;5.880;2023-11-19T08:11:19;99604.75;;;3.64;83.88
77706;BME280;66874;45.274;5.880;2023-11-19T08:13:47;99597.22;;;3.78;83.92
77706;BME280;66874;45.274;5.880;2023-11-19T08:16:12;99613.91;;;3.97;83.98
77706;BME280;66874;45.274;5.880;2023-11-19T08:18:38;99608.13;;;4.12;83.71
77706;BME280;66874;45.274;5.880;2023-11-19T08:21:06;99610.06;;;4.27;83.80
77706;BME280;66874;45.274;5.880;2023-11-19T08:23:31;99615.50;;;4.45;83.45
77706;BME280;66874;45.274;5.880;2023-11-19T08:25:57;99620.94;;;4.65;83.33
77706;BME280;66874;45.274;5.880;2023-11-19T08:28:22;99616.00;;;4.82;83.25
77706;BME280;66874;45.274;5.880;2023-11-19T08:30:48;99607.50;;;4.95;82.86
77706;BME280;66874;45.274;5.880;2023-11-19T08:33:13;99604.22;;;5.10;83.11
77706;BME280;66874;45.274;5.880;2023-11-19T08:35:40;99602.69;;;5.26;83.02
77706;BME280;66874;45.274;5.880;2023-11-19T08:38:05;99597.69;;;5.43;83.24
77706;BME280;66874;45.274;5.880;2023-11-19T08:40:30;99597.84;;;5.58;82.71
77706;BME280;66874;45.274;5.880;2023-11-19T08:42:56;99592.75;;;5.72;82.38
77706;BME280;66874;45.274;5.880;2023-11-19T08:45:22;99596.34;;;5.87;82.47
77706;BME280;66874;45.274;5.880;2023-11-19T08:47:47;99600.81;;;6.02;82.45
77706;BME280;66874;45.274;5.880;2023-11-19T08:50:13;99606.16;;;6.22;81.96
77706;BME280;66874;45.274;5.880;2023-11-19T08:52:38;99603.69;;;6.41;82.13
77706;BME280;66874;45.274;5.880;2023-11-19T08:55:04;99602.97;;;6.65;81.66
77706;BME280;66874;45.274;5.880;2023-11-19T08:57:50;99603.97;;;6.90;81.31
77706;BME280;66874;45.274;5.880;2023-11-19T09:00:15;99595.38;;;7.15;80.91
77706;BME280;66874;45.274;5.880;2023-11-19T09:02:41;99595.44;;;7.37;80.55
77706;BME280;66874;45.274;5.880;2023-11-19T09:05:08;99590.28;;;7.63;80.30
77706;BME280;66874;45.274;5.880;2023-11-19T09:07:33;99589.44;;;7.85;80.08
77706;BME280;66874;45.274;5.880;2023-11-19T09:09:58;99590.28;;;8.01;79.76
77706;BME280;66874;45.274;5.880;2023-11-19T09:12:24;99585.06;;;8.10;79.83
77706;BME280;66874;45.274;5.880;2023-11-19T09:14:49;99590.28;;;8.21;79.76
77706;BME280;66874;45.274;5.880;2023-11-19T09:17:15;99581.59;;;8.39;79.51
77706;BME280;66874;45.274;5.880;2023-11-19T09:19:42;99581.53;;;8.63;79.19
77706;BME280;66874;45.274;5.880;2023-11-19T09:22:07;99575.31;;;8.93;78.85
77706;BME280;66874;45.274;5.880;2023-11-19T09:24:33;99568.22;;;9.21;78.44
77706;BME280;66874;45.274;5.880;2023-11-19T09:26:58;99573.22;;;9.55;77.84
77706;BME280;66874;45.274;5.880;2023-11-19T09:29:24;99564.22;;;9.94;77.36
77706;BME280;66874;45.274;5.880;2023-11-19T09:31:49;99560.41;;;10.32;76.83
77706;BME280;66874;45.274;5.880;2023-11-19T09:34:14;99561.84;;;10.62;76.27
77706;BME280;66874;45.274;5.880;2023-11-19T09:36:40;99560.59;;;10.92;75.57
77706;BME280;66874;45.274;5.880;2023-11-19T09:39:12;99557.59;;;11.21;74.44
77706;BME280;66874;45.274;5.880;2023-11-19T09:41:40;99559.03;;;11.42;74.14
77706;BME280;66874;45.274;5.880;2023-11-19T09:44:08;99551.75;;;11.63;73.82
77706;BME280;66874;45.274;5.880;2023-11-19T09:47:02;99557.59;;;11.80;72.79
77706;BME280;66874;45.274;5.880;2023-11-19T09:49:30;99558.38;;;11.88;73.11
77706;BME280;66874;45.274;5.880;2023-11-19T09:51:56;99563.41;;;12.01;72.73
77706;BME280;66874;45.274;5.880;2023-11-19T09:54:21;99550.34;;;11.97;72.09
77706;BME280;66874;45.274;5.880;2023-11-19T09:56:47;99558.91;;;12.07;72.09
77706;BME280;66874;45.274;5.880;2023-11-19T09:59:13;99556.25;;;12.09;71.35
77706;BME280;66874;45.274;5.880;2023-11-19T10:01:39;99554.53;;;12.08;71.21
77706;BME280;66874;45.274;5.880;2023-11-19T10:04:06;99553.31;;;12.26;71.34
77706;BME280;66874;45.274;5.880;2023-11-19T10:06:32;99550.13;;;12.56;70.73
77706;BME280;66874;45.274;5.880;2023-11-19T10:08:57;99552.38;;;12.75;70.44
77706;BME280;66874;45.274;5.880;2023-11-19T10:11:24;99543.22;;;12.94;70.07
77706;BME280;66874;45.274;5.880;2023-11-19T10:13:51;99544.41;;;13.21;69.86
77706;BME280;66874;45.274;5.880;2023-11-19T10:16:18;99541.16;;;13.50;69.48
77706;BME280;66874;45.274;5.880;2023-11-19T10:18:47;99524.56;;;13.84;68.61
77706;BME280;66874;45.274;5.880;2023-11-19T10:21:14;99523.97;;;14.07;67.91
77706;BME280;66874;45.274;5.880;2023-11-19T10:23:51;99525.97;;;14.31;67.81
77706;BME280;66874;45.274;5.880;2023-11-19T10:26:18;99513.31;;;14.44;67.53
77706;BME280;66874;45.274;5.880;2023-11-19T10:28:45;99508.19;;;14.72;66.74
77706;BME280;66874;45.274;5.880;2023-11-19T10:31:14;99498.63;;;14.98;66.27
77706;BME280;66874;45.274;5.880;2023-11-19T10:33:40;99486.72;;;15.14;65.37
77706;BME280;66874;45.274;5.880;2023-11-19T10:36:06;99486.06;;;15.07;64.85
77706;BME280;66874;45.274;5.880;2023-11-19T10:38:32;99481.16;;;15.23;64.61
77706;BME280;66874;45.274;5.880;2023-11-19T10:40:58;99467.84;;;15.54;64.51
77706;BME280;66874;45.274;5.880;2023-11-19T10:43:24;99473.69;;;15.91;63.59
77706;BME280;66874;45.274;5.880;2023-11-19T10:45:50;99471.25;;;16.11;62.63
77706;BME280;66874;45.274;5.880;2023-11-19T10:48:15;99466.97;;;16.32;62.19
77706;BME280;66874;45.274;5.880;2023-11-19T10:50:43;99460.47;;;16.41;61.46
77706;BME280;66874;45.274;5.880;2023-11-19T10:53:10;99456.53;;;16.52;61.41
77706;BME280;66874;45.274;5.880;2023-11-19T10:55:37;99465.00;;;16.86;60.73
77706;BME280;66874;45.274;5.880;2023-11-19T10:58:07;99454.75;;;17.22;60.34
77706;BME280;66874;45.274;5.880;2023-11-19T11:03:08;99455.78;;;17.84;58.81
77706;BME280;66874;45.274;5.880;2023-11-19T11:05:35;99457.91;;;17.96;58.42
77706;BME280;66874;45.274;5.880;2023-11-19T11:08:04;99452.72;;;18.13;57.56
77706;BME280;66874;45.274;5.880;2023-11-19T11:10:32;99445.72;;;18.12;56.93
77706;BME280;66874;45.274;5.880;2023-11-19T11:13:03;99449.69;;;18.02;55.87
77706;BME280;66874;45.274;5.880;2023-11-19T11:15:28;99447.22;;;17.97;55.70
77706;BME280;66874;45.274;5.880;2023-11-19T11:17:57;99449.88;;;17.97;56.65
77706;BME280;66874;45.274;5.880;2023-11-19T11:20:25;99443.31;;;18.06;56.04
77706;BME280;66874;45.274;5.880;2023-11-19T11:28:40;99421.59;;;18.58;54.81
77706;BME280;66874;45.274;5.880;2023-11-19T11:31:31;99430.13;;;18.83;54.33
77706;BME280;66874;45.274;5.880;2023-11-19T11:37:00;99428.34;;;19.39;54.07
77706;BME280;66874;45.274;5.880;2023-11-19T11:39:29;99415.91;;;19.75;54.36
77706;BME280;66874;45.274;5.880;2023-11-19T11:45:09;99422.34;;;21.80;51.21
77706;BME280;66874;45.274;5.880;2023-11-19T11:50:16;99408.44;;;24.36;46.98
77706;BME280;66874;45.274;5.880;2023-11-19T11:53:13;99406.97;;;24.32;45.90
77706;BME280;66874;45.274;5.880;2023-11-19T11:58:08;99423.97;;;22.56;46.47
77706;BME280;66874;45.274;5.880;2023-11-19T12:00:38;99422.00;;;22.45;47.38
77706;BME280;66874;45.274;5.880;2023-11-19T12:03:05;99418.63;;;23.26;45.84
77706;BME280;66874;45.274;5.880;2023-11-19T12:05:30;99415.84;;;22.86;45.60
77706;BME280;66874;45.274;5.880;2023-11-19T12:08:03;99421.16;;;22.00;46.04
77706;BME280;66874;45.274;5.880;2023-11-19T12:10:31;99408.81;;;21.23;47.03
77706;BME280;66874;45.274;5.880;2023-11-19T12:13:06;99406.63;;;20.68;47.94
77706;BME280;66874;45.274;5.880;2023-11-19T12:18:29;99402.31;;;19.99;48.85
77706;BME280;66874;45.274;5.880;2023-11-19T12:20:56;99400.91;;;19.74;49.21
77706;BME280;66874;45.274;5.880;2023-11-19T12:23:26;99390.25;;;20.09;49.09
77706;BME280;66874;45.274;5.880;2023-11-19T12:25:51;99389.66;;;21.32;47.41
77706;BME280;66874;45.274;5.880;2023-11-19T12:28:17;99380.97;;;22.19;46.09
77706;BME280;66874;45.274;5.880;2023-11-19T12:30:44;99374.94;;;22.58;45.32
77706;BME280;66874;45.274;5.880;2023-11-19T12:33:10;99374.41;;;22.80;45.16
77706;BME280;66874;45.274;5.880;2023-11-19T12:35:43;99368.31;;;22.78;44.43
77706;BME280;66874;45.274;5.880;2023-11-19T12:40:44;99359.97;;;22.13;45.30
77706;BME280;66874;45.274;5.880;2023-11-19T12:43:10;99362.19;;;22.35;45.05
77706;BME280;66874;45.274;5.880;2023-11-19T12:45:35;99357.53;;;23.21;44.28
77706;BME280;66874;45.274;5.880;2023-11-19T12:48:07;99352.00;;;24.53;42.57
77706;BME280;66874;45.274;5.880;2023-11-19T12:50:53;99353.28;;;25.56;40.86
77706;BME280;66874;45.274;5.880;2023-11-19T12:53:20;99349.88;;;26.23;39.93
77706;BME280;66874;45.274;5.880;2023-11-19T12:55:46;99346.69;;;26.52;39.21
77706;BME280;66874;45.274;5.880;2023-11-19T12:58:30;99349.13;;;26.55;38.35
77706;BME280;66874;45.274;5.880;2023-11-19T13:01:06;99351.19;;;26.29;38.66
77706;BME280;66874;45.274;5.880;2023-11-19T13:03:34;99355.94;;;26.82;38.29
77706;BME280;66874;45.274;5.880;2023-11-19T13:06:06;99354.50;;;26.66;39.55
77706;BME280;66874;45.274;5.880;2023-11-19T13:08:45;99350.34;;;25.95;38.71
77706;BME280;66874;45.274;5.880;2023-11-19T13:11:12;99347.03;;;24.97;39.29
77706;BME280;66874;45.274;5.880;2023-11-19T13:13:58;99341.97;;;23.93;40.56
77706;BME280;66874;45.274;5.880;2023-11-19T13:16:25;99340.25;;;23.27;41.77
77706;BME280;66874;45.274;5.880;2023-11-19T13:18:51;99343.78;;;22.59;42.18
77706;BME280;66874;45.274;5.880;2023-11-19T13:21:17;99329.31;;;23.04;42.98
77706;BME280;66874;45.274;5.880;2023-11-19T13:23:43;99329.34;;;24.08;41.92
77706;BME280;66874;45.274;5.880;2023-11-19T13:26:09;99329.72;;;25.14;40.12
77706;BME280;66874;45.274;5.880;2023-11-19T13:28:34;99322.94;;;25.91;39.05
77706;BME280;66874;45.274;5.880;2023-11-19T13:30:59;99310.38;;;26.48;38.13